createdAt,value
2022-10-23T00:01:16.607Z,98141.88
2022-10-23T00:03:45.959Z,98146.19
2022-10-23T00:06:14.959Z,98141.31
2022-10-23T00:08:43.044Z,98131.06
2022-10-23T00:11:12.971Z,98140.78
2022-10-23T00:13:41.121Z,98123.44
2022-10-23T00:16:11.307Z,98131.28
2022-10-23T00:18:40.448Z,98115.59
2022-10-23T00:21:10.469Z,98115.59
2022-10-23T00:23:38.585Z,98110.19
2022-10-23T00:26:08.086Z,98104.78
2022-10-23T00:28:36.235Z,98098.81
2022-10-23T00:31:04.324Z,98093.97
2022-10-23T00:33:34.335Z,98099.66
2022-10-23T00:36:02.318Z,98095.88
2022-10-23T00:38:30.112Z,98104.25
2022-10-23T00:40:58.009Z,98103.44
2022-10-23T00:43:28.279Z,98111.81
2022-10-23T00:45:56.673Z,98114.25
2022-10-23T00:48:25.383Z,98105.03
2022-10-23T00:50:54.896Z,98104.22
2022-10-23T00:53:23.871Z,98102.03
2022-10-23T00:55:55.929Z,98105.28
2022-10-23T00:58:24.158Z,98101.97
2022-10-23T01:00:54.344Z,98105.50
2022-10-23T01:03:26.246Z,98099.53
2022-10-23T01:06:02.098Z,98099.00
2022-10-23T01:08:36.291Z,98103.31
2022-10-23T01:11:11.534Z,98099.53
2022-10-23T01:13:45.987Z,98097.06
2022-10-23T01:16:19.782Z,98092.22
2022-10-23T01:18:54.948Z,98100.56
2022-10-23T01:21:31.329Z,98098.41
2022-10-23T01:24:10.133Z,98102.72
2022-10-23T01:27:02.131Z,98080.53
2022-10-23T01:29:38.273Z,98082.69
2022-10-23T01:32:10.773Z,98085.94
2022-10-23T01:34:47.453Z,98082.72
2022-10-23T01:37:21.133Z,98077.31
2022-10-23T01:39:52.794Z,98077.06
2022-10-23T01:42:25.940Z,98073.53
2022-10-23T01:45:01.433Z,98067.88
2022-10-23T01:47:34.016Z,98068.69
2022-10-23T01:50:03.680Z,98071.13
2022-10-23T01:52:32.048Z,98077.34
2022-10-23T01:55:02.462Z,98071.66
2022-10-23T01:57:33.789Z,98064.63
2022-10-23T02:00:07.814Z,98060.84
2022-10-23T02:02:38.756Z,98058.13
2022-10-23T02:05:11.968Z,98068.13
2022-10-23T02:07:40.103Z,98075.16
2022-10-23T02:10:10.786Z,98071.66
2022-10-23T02:12:46.493Z,98068.94
2022-10-23T02:15:24.193Z,98062.72
2022-10-23T02:18:03.877Z,98060.84
2022-10-23T02:20:38.971Z,98057.31
2022-10-23T02:23:16.366Z,98056.28
2022-10-23T02:25:50.333Z,98054.63
2022-10-23T02:28:24.785Z,98043.00
2022-10-23T02:30:56.500Z,98041.38
2022-10-23T02:33:27.430Z,98030.31
2022-10-23T02:35:55.777Z,98033.00
2022-10-23T02:38:36.460Z,98029.50
2022-10-23T02:41:42.869Z,98026.25
2022-10-23T02:44:26.999Z,98024.63
2022-10-23T02:47:05.895Z,98031.13
2022-10-23T02:49:40.560Z,98027.06
2022-10-23T02:52:15.884Z,98023.81
2022-10-23T02:55:07.461Z,98017.84
2022-10-23T02:57:38.869Z,98006.50
2022-10-23T03:00:11.036Z,98008.94
2022-10-23T03:02:43.063Z,97997.59
2022-10-23T03:05:17.565Z,98003.25
2022-10-23T03:07:47.029Z,98011.38
2022-10-23T03:10:15.958Z,98013.78
2022-10-23T03:12:43.873Z,98008.09
2022-10-23T03:15:13.543Z,98000.28
2022-10-23T03:17:42.849Z,97995.66
2022-10-23T03:20:11.823Z,98002.41
2022-10-23T03:22:40.684Z,98001.59
2022-10-23T03:25:09.740Z,98004.84
2022-10-23T03:27:38.007Z,98001.59
2022-10-23T03:30:07.444Z,98009.44
2022-10-23T03:32:35.512Z,97995.13
2022-10-23T03:35:05.333Z,98001.31
2022-10-23T03:37:33.124Z,97986.47
2022-10-23T03:40:00.957Z,97984.31
2022-10-23T03:42:28.762Z,97979.44
2022-10-23T03:44:56.809Z,97993.75
2022-10-23T03:47:24.903Z,97984.03
2022-10-23T03:49:52.689Z,97978.06
2022-10-23T03:52:21.984Z,97977.00
2022-10-23T03:54:50.190Z,97979.44
2022-10-23T03:57:17.997Z,97979.44
2022-10-23T03:59:46.064Z,97978.06
2022-10-23T04:02:13.942Z,97978.34
2022-10-23T04:04:42.236Z,97974.56
2022-10-23T04:07:10.241Z,97981.59
2022-10-23T04:09:39.552Z,97974.03
2022-10-23T04:12:09.218Z,97976.16
2022-10-23T04:14:37.346Z,97977.81
2022-10-23T04:17:05.178Z,97977.81
2022-10-23T04:19:33.040Z,97976.69
2022-10-23T04:22:01.154Z,97983.72
2022-10-23T04:24:29.098Z,97975.63
2022-10-23T04:26:58.397Z,97990.75
2022-10-23T04:29:28.548Z,97982.09
2022-10-23T04:31:56.375Z,97984.81
2022-10-23T04:34:24.300Z,97989.09
2022-10-23T04:36:52.321Z,97990.72
2022-10-23T04:39:20.354Z,97988.31
2022-10-23T04:41:48.504Z,97986.69
2022-10-23T04:44:18.144Z,97990.47
2022-10-23T04:46:46.060Z,97990.75
2022-10-23T04:49:13.866Z,97985.88
2022-10-23T04:51:41.683Z,97981.28
2022-10-23T04:54:09.755Z,97975.31
2022-10-23T04:56:37.981Z,97984.22
2022-10-23T05:01:39.971Z,97977.22
2022-10-23T05:04:07.832Z,97983.97
2022-10-23T05:06:35.689Z,97973.47
2022-10-23T05:09:03.642Z,97986.41
2022-10-23T05:11:31.749Z,97979.13
2022-10-23T05:13:59.609Z,97985.59
2022-10-23T05:16:37.153Z,97984.78
2022-10-23T05:19:08.857Z,97972.63
2022-10-23T05:21:38.140Z,97970.72
2022-10-23T05:24:06.604Z,97971.53
2022-10-23T05:26:34.386Z,97966.97
2022-10-23T05:29:02.432Z,97965.06
2022-10-23T05:31:30.947Z,97972.34
2022-10-23T05:33:58.736Z,97979.91
2022-10-23T05:36:28.698Z,97973.16
2022-10-23T05:38:56.608Z,97966.66
2022-10-23T05:41:24.420Z,97956.94
2022-10-23T05:43:52.238Z,97960.19
2022-10-23T05:46:20.001Z,97965.84
2022-10-23T05:48:51.183Z,97966.09
2022-10-23T05:51:23.322Z,97960.16
2022-10-23T05:53:53.641Z,97959.88
2022-10-23T05:56:21.503Z,97951.25
2022-10-23T05:58:49.810Z,97949.91
2022-10-23T06:01:18.605Z,97941.00
2022-10-23T06:03:46.615Z,97937.22
2022-10-23T06:06:14.404Z,97939.66
2022-10-23T06:08:42.576Z,97939.94
2022-10-23T06:11:14.289Z,97940.50
2022-10-23T06:13:44.635Z,97931.31
2022-10-23T06:16:16.336Z,97930.50
2022-10-23T06:18:44.703Z,97927.53
2022-10-23T06:21:12.657Z,97938.88
2022-10-23T06:23:41.760Z,97932.69
2022-10-23T06:26:13.745Z,97930.53
2022-10-23T06:28:41.996Z,97934.59
2022-10-23T06:31:11.521Z,97926.19
2022-10-23T06:33:39.452Z,97934.59
2022-10-23T06:36:10.378Z,97935.69
2022-10-23T06:38:40.559Z,97929.47
2022-10-23T06:41:12.598Z,97918.69
2022-10-23T06:43:42.293Z,97929.50
2022-10-23T06:46:10.895Z,97930.84
2022-10-23T06:48:38.898Z,97926.81
2022-10-23T06:51:08.835Z,97915.47
2022-10-23T06:53:38.132Z,97915.19
2022-10-23T06:56:08.087Z,97926.53
2022-10-23T06:58:38.274Z,97917.91
2022-10-23T07:01:10.391Z,97919.00
2022-10-23T07:03:38.324Z,97926.28
2022-10-23T07:06:09.054Z,97928.19
2022-10-23T07:08:37.758Z,97929.81
2022-10-23T07:11:06.338Z,97921.16
2022-10-23T07:13:35.726Z,97922.03
2022-10-23T07:16:13.206Z,97913.63
2022-10-23T07:18:41.487Z,97917.16
2022-10-23T07:21:09.416Z,97911.44
2022-10-23T07:23:37.612Z,97922.00
2022-10-23T07:26:32.880Z,97911.19
2022-10-23T07:29:00.702Z,97919.28
2022-10-23T07:31:31.231Z,97914.97
2022-10-23T07:34:08.653Z,97911.16
2022-10-23T07:36:36.507Z,97916.31
2022-10-23T07:39:04.900Z,97916.03
2022-10-23T07:41:32.689Z,97916.00
2022-10-23T07:44:00.819Z,97916.25
2022-10-23T07:46:30.300Z,97916.50
2022-10-23T07:48:58.158Z,97922.19
2022-10-23T07:51:26.184Z,97921.59
2022-10-23T07:53:54.267Z,97928.06
2022-10-23T07:56:25.197Z,97935.34
2022-10-23T07:58:54.219Z,97933.69
2022-10-23T08:01:29.601Z,97934.72
2022-10-23T08:03:59.005Z,97943.63
2022-10-23T08:06:27.204Z,97935.19
2022-10-23T08:08:55.208Z,97932.09
2022-10-23T08:11:28.015Z,97922.53
2022-10-23T08:13:57.629Z,97928.69
2022-10-23T08:16:26.945Z,97917.97
2022-10-23T08:18:55.566Z,97920.03
2022-10-23T08:21:25.073Z,97918.06
2022-10-23T08:23:56.008Z,97922.81
2022-10-23T08:26:25.003Z,97913.13
2022-10-23T08:28:53.273Z,97907.84
2022-10-23T08:31:23.285Z,97911.47
2022-10-23T08:33:51.622Z,97910.78
2022-10-23T08:36:22.846Z,97903.28
2022-10-23T08:38:53.715Z,97910.09
2022-10-23T08:41:28.811Z,97894.41
2022-10-23T08:44:08.702Z,97897.66
2022-10-23T08:46:41.864Z,97897.97
2022-10-23T08:49:26.098Z,97881.88
2022-10-23T08:51:58.613Z,97884.31
2022-10-23T08:54:35.638Z,97882.38
2022-10-23T08:57:10.730Z,97883.78
2022-10-23T08:59:46.484Z,97885.13
2022-10-23T09:02:22.735Z,97875.03
2022-10-23T09:04:53.104Z,97868.91
2022-10-23T09:07:29.665Z,97864.41
2022-10-23T09:10:11.780Z,97859.78
2022-10-23T09:12:39.990Z,97862.22
2022-10-23T09:15:31.700Z,97868.28
2022-10-23T09:18:08.069Z,97868.13
2022-10-23T09:20:37.533Z,97880.28
2022-10-23T09:23:09.377Z,97874.81
2022-10-23T09:25:41.385Z,97877.97
2022-10-23T09:28:19.950Z,97875.75
2022-10-23T09:30:51.752Z,97873.31
2022-10-23T09:33:22.326Z,97874.91
2022-10-23T09:36:00.337Z,97877.72
2022-10-23T09:38:31.907Z,97864.38
2022-10-23T09:41:11.412Z,97859.38
2022-10-23T09:43:39.266Z,97865.28
2022-10-23T09:46:09.758Z,97863.31
2022-10-23T09:48:42.470Z,97868.19
2022-10-23T09:51:19.566Z,97851.66
2022-10-23T09:53:53.899Z,97844.16
2022-10-23T09:56:32.412Z,97844.56
2022-10-23T09:59:02.792Z,97839.47
2022-10-23T10:01:33.764Z,97845.28
2022-10-23T10:04:01.724Z,97843.41
2022-10-23T10:06:33.425Z,97835.56
2022-10-23T10:09:03.640Z,97832.41
2022-10-23T10:11:39.271Z,97820.69
2022-10-23T10:14:32.304Z,97828.78
2022-10-23T10:17:04.620Z,97831.53
2022-10-23T10:19:48.457Z,97833.19
2022-10-23T10:22:31.503Z,97836.91
2022-10-23T10:25:08.345Z,97833.84
2022-10-23T10:27:46.933Z,97839.16
2022-10-23T10:30:17.532Z,97848.31
2022-10-23T10:32:51.382Z,97832.53
2022-10-23T10:35:34.046Z,97829.66
2022-10-23T10:38:32.243Z,97830.28
2022-10-23T10:41:24.168Z,97837.22
2022-10-23T10:44:10.485Z,97822.59
2022-10-23T10:46:45.186Z,97816.16
2022-10-23T10:49:21.398Z,97810.66
2022-10-23T10:51:57.630Z,97804.88
2022-10-23T10:54:40.435Z,97793.13
2022-10-23T10:57:15.352Z,97787.31
2022-10-23T10:59:48.891Z,97776.34
2022-10-23T11:02:29.113Z,97782.47
2022-10-23T11:05:06.030Z,97782.31
2022-10-23T11:07:38.493Z,97784.75
2022-10-23T11:10:17.403Z,97790.72
2022-10-23T11:12:47.375Z,97793.28
2022-10-23T11:15:22.964Z,97795.56
2022-10-23T11:17:56.059Z,97789.28
2022-10-23T11:20:46.601Z,97790.56
2022-10-23T11:23:38.498Z,97794.09
2022-10-23T11:26:21.523Z,97784.75
2022-10-23T11:29:02.294Z,97780.25
2022-10-23T11:31:40.308Z,97768.50
2022-10-23T11:34:44.271Z,97761.41
2022-10-23T11:37:19.077Z,97768.00
2022-10-23T11:40:02.811Z,97763.03
2022-10-23T11:42:46.847Z,97739.69
2022-10-23T11:45:37.874Z,97741.63
2022-10-23T11:48:20.727Z,97739.03
2022-10-23T11:50:54.978Z,97738.91
2022-10-23T11:53:40.969Z,97731.84
2022-10-23T11:56:28.186Z,97724.91
2022-10-23T11:58:58.689Z,97714.63
2022-10-23T12:01:32.313Z,97709.47
2022-10-23T12:04:05.062Z,97716.41
2022-10-23T12:06:39.944Z,97720.59
2022-10-23T12:09:20.113Z,97720.59
2022-10-23T12:11:51.455Z,97713.97
2022-10-23T12:14:30.816Z,97709.31
2022-10-23T12:16:58.903Z,97714.47
2022-10-23T12:19:47.923Z,97708.34
2022-10-23T12:22:16.410Z,97700.13
2022-10-23T12:24:57.024Z,97700.13
2022-10-23T12:27:34.255Z,97697.53
2022-10-23T12:30:16.613Z,97696.22
2022-10-23T12:33:05.768Z,97698.63
2022-10-23T12:35:50.300Z,97695.72
2022-10-23T12:38:20.592Z,97691.69
2022-10-23T12:40:52.935Z,97685.09
2022-10-23T12:43:27.874Z,97686.69
2022-10-23T12:45:57.411Z,97683.81
2022-10-23T12:48:26.069Z,97679.94
2022-10-23T12:50:56.725Z,97676.53
2022-10-23T12:53:24.932Z,97668.16
2022-10-23T12:55:57.457Z,97675.53
2022-10-23T12:58:30.173Z,97673.13
2022-10-23T13:01:00.232Z,97664.22
2022-10-23T13:03:30.674Z,97664.34
2022-10-23T13:06:02.760Z,97661.16
2022-10-23T13:08:35.246Z,97648.63
2022-10-23T13:11:04.255Z,97648.00
2022-10-23T13:13:32.290Z,97644.22
2022-10-23T13:16:00.221Z,97639.25
2022-10-23T13:18:28.044Z,97638.94
2022-10-23T13:23:32.581Z,97628.75
2022-10-23T13:26:01.774Z,97612.28
2022-10-23T13:28:33.441Z,97615.16
2022-10-23T13:31:25.467Z,97601.66
2022-10-23T13:34:06.826Z,97602.00
2022-10-23T13:36:39.577Z,97621.91
2022-10-23T13:39:15.143Z,97628.19
2022-10-23T13:41:44.702Z,97627.75
2022-10-23T13:44:13.915Z,97626.03
2022-10-23T13:46:42.266Z,97622.91
2022-10-23T13:49:10.468Z,97624.88
2022-10-23T13:51:43.813Z,97622.06
2022-10-23T13:54:16.154Z,97626.00
2022-10-23T13:56:44.055Z,97626.09
2022-10-23T13:59:12.463Z,97622.47
2022-10-23T14:01:41.197Z,97618.53
2022-10-23T14:04:09.592Z,97621.97
2022-10-23T14:06:38.688Z,97626.72
2022-10-23T14:09:10.349Z,97628.72
2022-10-23T14:11:38.478Z,97628.78
2022-10-23T14:14:06.305Z,97620.28
2022-10-23T14:16:34.203Z,97624.66
2022-10-23T14:19:02.069Z,97617.56
2022-10-23T14:21:30.060Z,97620.34
2022-10-23T14:23:58.911Z,97617.78
2022-10-23T14:26:30.298Z,97614.75
2022-10-23T14:29:02.438Z,97619.44
2022-10-23T14:31:35.455Z,97621.59
2022-10-23T14:34:03.581Z,97618.88
2022-10-23T14:36:38.787Z,97616.00
2022-10-23T14:39:17.883Z,97609.09
2022-10-23T14:41:48.401Z,97602.50
2022-10-23T14:44:16.755Z,97593.50
2022-10-23T14:46:44.639Z,97594.78
2022-10-23T14:49:12.464Z,97597.69
2022-10-23T14:51:40.328Z,97598.31
2022-10-23T14:54:09.295Z,97589.81
2022-10-23T14:56:39.576Z,97598.97
2022-10-23T14:59:10.983Z,97594.97
2022-10-23T15:01:43.801Z,97592.38
2022-10-23T15:04:15.806Z,97575.22
2022-10-23T15:06:45.182Z,97586.47
2022-10-23T15:09:13.185Z,97580.22
2022-10-23T15:11:41.183Z,97573.28
2022-10-23T15:14:10.394Z,97579.09
2022-10-23T15:16:41.602Z,97569.28
2022-10-23T15:19:13.532Z,97570.72
2022-10-23T15:21:45.270Z,97556.09
2022-10-23T15:24:13.249Z,97552.88
2022-10-23T15:26:43.047Z,97555.13
2022-10-23T15:29:14.956Z,97546.72
2022-10-23T15:31:45.437Z,97546.09
2022-10-23T15:34:17.829Z,97544.63
2022-10-23T15:36:49.195Z,97540.59
2022-10-23T15:39:19.348Z,97541.25
2022-10-23T15:41:47.525Z,97536.28
2022-10-23T15:44:18.306Z,97541.91
2022-10-23T15:46:48.364Z,97537.25
2022-10-23T15:49:16.698Z,97519.09
2022-10-23T15:51:45.242Z,97524.53
2022-10-23T15:54:18.497Z,97529.19
2022-10-23T15:56:49.205Z,97516.19
2022-10-23T15:59:19.402Z,97525.19
2022-10-23T16:01:47.594Z,97519.25
2022-10-23T16:04:16.220Z,97520.34
2022-10-23T16:06:44.596Z,97512.63
2022-10-23T16:09:12.678Z,97514.88
2022-10-23T16:11:42.811Z,97510.06
2022-10-23T16:14:13.907Z,97498.66
2022-10-23T16:16:43.844Z,97494.66
2022-10-23T16:19:12.790Z,97493.84
2022-10-23T16:21:41.125Z,97499.94
2022-10-23T16:24:09.837Z,97506.81
2022-10-23T16:26:38.959Z,97514.34
2022-10-23T16:29:08.813Z,97516.75
2022-10-23T16:31:36.757Z,97520.09
2022-10-23T16:34:09.153Z,97523.31
2022-10-23T16:36:40.728Z,97533.75
2022-10-23T16:39:09.774Z,97529.28
2022-10-23T16:41:37.584Z,97538.25
2022-10-23T16:44:05.553Z,97523.00
2022-10-23T16:46:34.034Z,97530.72
2022-10-23T16:49:02.954Z,97530.88
2022-10-23T16:51:32.660Z,97519.97
2022-10-23T16:54:00.784Z,97523.16
2022-10-23T16:56:30.031Z,97517.69
2022-10-23T17:01:33.354Z,97518.50
2022-10-23T17:04:01.774Z,97514.34
2022-10-23T17:06:33.414Z,97495.56
2022-10-23T17:09:02.489Z,97505.53
2022-10-23T17:11:32.232Z,97504.41
2022-10-23T17:14:04.963Z,97507.94
2022-10-23T17:16:36.217Z,97511.97
2022-10-23T17:19:15.833Z,97532.66
2022-10-23T17:21:55.858Z,97530.72
2022-10-23T17:24:24.356Z,97533.78
2022-10-23T17:26:52.564Z,97548.22
2022-10-23T17:29:22.000Z,97547.91
2022-10-23T17:31:51.503Z,97544.38
2022-10-23T17:34:21.320Z,97548.22
2022-10-23T17:36:52.547Z,97555.28
2022-10-23T17:39:24.008Z,97556.56
2022-10-23T17:41:54.817Z,97561.53
2022-10-23T17:44:23.344Z,97577.09
2022-10-23T17:46:55.082Z,97598.94
2022-10-23T17:49:23.694Z,97611.75
2022-10-23T17:51:53.836Z,97603.41
2022-10-23T17:54:24.355Z,97601.78
2022-10-23T17:56:52.355Z,97594.56
2022-10-23T17:59:20.357Z,97589.91
2022-10-23T18:01:49.704Z,97602.25
2022-10-23T18:04:20.671Z,97597.41
2022-10-23T18:06:50.630Z,97581.06
2022-10-23T18:09:18.823Z,97580.41
2022-10-23T18:11:48.847Z,97581.09
2022-10-23T18:14:19.007Z,97577.56
2022-10-23T18:16:47.176Z,97575.47
2022-10-23T18:19:15.650Z,97587.84
2022-10-23T18:21:44.276Z,97587.34
2022-10-23T18:24:13.442Z,97594.41
2022-10-23T18:26:42.998Z,97591.50
2022-10-23T18:29:15.896Z,97586.53
2022-10-23T18:31:48.398Z,97604.53
2022-10-23T18:34:21.536Z,97618.34
2022-10-23T18:36:50.628Z,97630.06
2022-10-23T18:39:22.600Z,97639.53
2022-10-23T18:41:55.161Z,97641.78
2022-10-23T18:44:53.909Z,97651.91
2022-10-23T18:47:26.176Z,97671.88
2022-10-23T18:49:58.305Z,97675.88
2022-10-23T18:52:30.581Z,97704.25
2022-10-23T18:55:01.214Z,97761.25
2022-10-23T18:57:31.047Z,97735.41
2022-10-23T19:00:03.711Z,97738.78
2022-10-23T19:02:32.059Z,97733.09
2022-10-23T19:05:00.599Z,97729.72
2022-10-23T19:07:35.233Z,97704.06
2022-10-23T19:10:16.159Z,97703.22
2022-10-23T19:12:50.354Z,97705.50
2022-10-23T19:15:31.449Z,97713.25
2022-10-23T19:18:01.577Z,97708.06
2022-10-23T19:20:34.996Z,97717.78
2022-10-23T19:23:12.779Z,97706.50
2022-10-23T19:25:54.808Z,97718.13
2022-10-23T19:28:23.370Z,97718.25
2022-10-23T19:30:57.511Z,97712.13
2022-10-23T19:33:34.596Z,97717.56
2022-10-23T19:36:14.299Z,97716.88
2022-10-23T19:38:45.257Z,97725.16
2022-10-23T19:41:34.015Z,97731.72
2022-10-23T19:44:06.368Z,97729.31
2022-10-23T19:46:42.410Z,97736.25
2022-10-23T19:49:11.393Z,97721.72
2022-10-23T19:51:51.272Z,97722.63
2022-10-23T19:54:24.864Z,97721.44
2022-10-23T19:56:56.777Z,97712.66
2022-10-23T19:59:25.159Z,97721.75
2022-10-23T20:01:55.342Z,97712.47
2022-10-23T20:04:23.695Z,97713.38
2022-10-23T20:06:51.527Z,97709.34
2022-10-23T20:09:19.332Z,97701.00
2022-10-23T20:11:49.273Z,97707.56
2022-10-23T20:14:20.638Z,97707.34
2022-10-23T20:16:52.227Z,97698.50
2022-10-23T20:19:25.375Z,97703.75
2022-10-23T20:21:53.661Z,97708.38
2022-10-23T20:24:22.870Z,97705.97
2022-10-23T20:26:53.020Z,97708.16
2022-10-23T20:29:21.578Z,97699.75
2022-10-23T20:31:49.958Z,97712.13
2022-10-23T20:34:19.044Z,97706.00
2022-10-23T20:36:50.290Z,97706.50
2022-10-23T20:39:20.604Z,97699.91
2022-10-23T20:41:49.342Z,97692.72
2022-10-23T20:44:19.387Z,97710.28
2022-10-23T20:46:47.667Z,97700.22
2022-10-23T20:49:16.477Z,97698.94
2022-10-23T20:51:44.581Z,97700.22
2022-10-23T20:54:14.072Z,97704.44
2022-10-23T20:56:42.278Z,97708.13
2022-10-23T20:59:12.685Z,97703.47
2022-10-23T21:01:41.717Z,97700.44
2022-10-23T21:04:12.422Z,97715.53
2022-10-23T21:06:57.514Z,97720.88
2022-10-23T21:09:31.844Z,97712.41
2022-10-23T21:11:59.683Z,97711.13
2022-10-23T21:14:28.715Z,97705.84
2022-10-23T21:16:56.546Z,97714.34
2022-10-23T21:19:24.462Z,97722.56
2022-10-23T21:21:52.425Z,97720.78
2022-10-23T21:24:20.377Z,97724.00
2022-10-23T21:26:49.989Z,97725.31
2022-10-23T21:29:19.370Z,97718.56
2022-10-23T21:31:52.835Z,97720.00
2022-10-23T21:34:20.769Z,97705.22
2022-10-23T21:37:11.277Z,97721.78
2022-10-23T21:39:36.403Z,97726.78
2022-10-23T21:42:05.672Z,97730.47
2022-10-23T21:44:33.532Z,97737.22
2022-10-23T21:47:02.960Z,97731.63
2022-10-23T21:49:30.837Z,97733.06
2022-10-23T21:51:58.648Z,97732.09
2022-10-23T21:54:26.637Z,97725.19
2022-10-23T21:56:55.002Z,97721.19
2022-10-23T21:59:27.905Z,97719.56
2022-10-23T22:01:58.160Z,97714.91
2022-10-23T22:04:26.137Z,97720.06
2022-10-23T22:06:54.093Z,97728.41
2022-10-23T22:09:23.045Z,97718.44
2022-10-23T22:11:51.921Z,97717.16
2022-10-23T22:14:20.267Z,97720.22
2022-10-23T22:16:50.554Z,97706.25
2022-10-23T22:19:19.373Z,97705.41
2022-10-23T22:21:49.125Z,97699.16
2022-10-23T22:24:18.632Z,97695.59
2022-10-23T22:26:48.287Z,97697.53
2022-10-23T22:29:18.759Z,97694.13
2022-10-23T22:31:49.604Z,97698.63
2022-10-23T22:37:12.753Z,97684.66
2022-10-23T22:39:40.752Z,97688.84
2022-10-23T22:42:08.891Z,97675.97
2022-10-23T22:44:36.878Z,97693.81
2022-10-23T22:47:05.177Z,97681.09
2022-10-23T22:49:34.356Z,97688.00
2022-10-23T22:52:02.204Z,97684.47
2022-10-23T22:54:31.803Z,97677.09
2022-10-23T22:56:59.892Z,97680.63
2022-10-23T22:59:27.733Z,97679.84
2022-10-23T23:01:56.277Z,97682.88
2022-10-23T23:04:39.726Z,97688.53
2022-10-23T23:07:11.020Z,97673.72
2022-10-23T23:09:39.782Z,97686.91
2022-10-23T23:12:09.417Z,97682.09
2022-10-23T23:14:37.665Z,97685.94
2022-10-23T23:17:06.235Z,97696.84
2022-10-23T23:19:34.504Z,97691.72
2022-10-23T23:22:03.414Z,97696.22
2022-10-23T23:24:33.188Z,97691.38
2022-10-23T23:27:01.007Z,97699.72
2022-10-23T23:29:29.786Z,97700.69
2022-10-23T23:31:57.752Z,97700.19
2022-10-23T23:34:25.542Z,97697.44
2022-10-23T23:36:53.370Z,97702.75
2022-10-23T23:39:21.231Z,97707.56
2022-10-23T23:41:50.492Z,97706.59
2022-10-23T23:44:18.387Z,97704.19
2022-10-23T23:46:46.252Z,97705.78
2022-10-23T23:49:14.048Z,97698.50
2022-10-23T23:51:42.017Z,97702.03
2022-10-23T23:54:09.842Z,97694.81
2022-10-23T23:56:38.005Z,97698.94
2022-10-23T23:59:07.337Z,97693.94
